Terminal Aerodrome Forecast
Issued by NWS Twin Cities, MN

Home | Current Version | Previous Version | Graphics & Text | Print | Product List | Glossary On
Versions: 1 2 3 4 5 6 7 8 9 10 11 12 13 14 15
000
FTUS43 KMPX 031527 AAA
TAFEAU
TAF AMD
KEAU 031527Z 0315/0412 20004KT 3/4SM -SN BR VV009
      TEMPO 0315/0317 1/4SM SN FZFG VV005
     FM031800 28009KT 1SM -SN BR BKN007 OVC015
     FM032000 30014G24KT 6SM -SN OVC020
     FM040100 29014G22KT P6SM FEW020 BKN090
     FM040500 29011KT P6SM SKC=

USA.gov is the U.S. government's official web portal to all federal, state and local government web resources and services.